Terminal Aerodrome Forecast
Issued by NWS Buffalo, NY

Home | Current Version | Previous Version | Text Only | Print | Product List | Glossary On
Versions: 1 2 3 4 5 6 7 8 9 10 11 12 13 14 15 16 17 18 19 20 21 22 23 24 25
000
FTUS41 KBUF 020500
TAFROC
TAF
KROC 020529Z 0206/0306 15004KT P6SM BKN110
     FM021200 19011KT P6SM BKN150
     FM021800 20014G22KT P6SM SCT110
     FM022000 20014G24KT P6SM BKN110
     FM022200 20016G27KT P6SM VCSH BKN080
     FM030000 20017G28KT P6SM BKN050
     FM030200 21019G31KT 4SM SHRA OVC045
     FM030500 26014G21KT 6SM -SHRA BKN090=

USA.gov is the U.S. government's official web portal to all federal, state and local government web resources and services.